createdAt,value
2018-11-28T00:02:29.965Z,-5.57
2018-11-28T00:07:32.016Z,-5.46
2018-11-28T00:12:34.489Z,-5.71
2018-11-28T00:17:36.689Z,-5.76
2018-11-28T00:22:38.861Z,-5.82
2018-11-28T00:27:41.288Z,-5.56
2018-11-28T00:32:43.457Z,-5.57
2018-11-28T00:37:45.638Z,-5.57
2018-11-28T00:42:47.792Z,-5.56
2018-11-28T00:47:49.878Z,-5.49
2018-11-28T00:52:51.972Z,-5.51
2018-11-28T00:57:54.321Z,-5.54
2018-11-28T01:02:56.586Z,-5.44
2018-11-28T01:08:06.322Z,-5.44
2018-11-28T01:13:08.635Z,-5.52
2018-11-28T01:18:10.726Z,-5.51
2018-11-28T01:23:12.756Z,-5.38
2018-11-28T01:28:14.841Z,-5.28
2018-11-28T01:33:16.850Z,-5.40
2018-11-28T01:38:19.066Z,-5.48
2018-11-28T01:43:21.459Z,-5.54
2018-11-28T01:48:23.537Z,-5.59
2018-11-28T01:53:25.539Z,-5.60
2018-11-28T01:58:27.607Z,-5.44
2018-11-28T02:03:29.663Z,-5.51
2018-11-28T02:08:31.717Z,-5.54
2018-11-28T02:13:34.030Z,-5.60
2018-11-28T02:18:36.058Z,-5.64
2018-11-28T02:23:38.331Z,-5.71
2018-11-28T02:28:40.778Z,-5.72
2018-11-28T02:33:43.418Z,-5.68
2018-11-28T02:38:45.428Z,-5.86
2018-11-28T02:43:47.733Z,-5.88
2018-11-28T02:48:49.810Z,-5.78
2018-11-28T02:53:52.150Z,-5.93
2018-11-28T02:58:54.381Z,-6.08
2018-11-28T03:03:56.459Z,-6.14
2018-11-28T03:08:58.533Z,-6.07
2018-11-28T03:14:00.595Z,-6.05
2018-11-28T03:19:02.679Z,-6.18
2018-11-28T03:24:05.251Z,-6.26
2018-11-28T03:29:07.477Z,-6.10
2018-11-28T03:34:09.625Z,-6.18
2018-11-28T03:39:11.850Z,-6.04
2018-11-28T03:44:14.082Z,-6.03
2018-11-28T03:49:16.350Z,-6.19
2018-11-28T03:54:18.389Z,-6.09
2018-11-28T03:59:20.426Z,-5.97
2018-11-28T04:04:22.481Z,-5.68
2018-11-28T04:09:24.538Z,-5.47
2018-11-28T04:14:26.591Z,-5.23
2018-11-28T04:19:28.638Z,-5.15
2018-11-28T04:24:30.793Z,-4.97
2018-11-28T04:29:32.917Z,-4.86
2018-11-28T04:34:35.259Z,-4.80
2018-11-28T04:39:37.375Z,-4.75
2018-11-28T04:44:39.438Z,-4.65
2018-11-28T04:49:48.381Z,-4.46
2018-11-28T04:54:57.344Z,-4.37
2018-11-28T04:59:59.966Z,-4.28
2018-11-28T05:05:02.019Z,-4.09
2018-11-28T05:10:06.425Z,-4.05
2018-11-28T05:15:10.719Z,-4.03
2018-11-28T05:20:13.945Z,-3.90
2018-11-28T05:25:19.650Z,-3.81
2018-11-28T05:30:23.871Z,-3.74
2018-11-28T05:35:30.610Z,-3.61
2018-11-28T05:40:32.630Z,-3.58
2018-11-28T05:45:34.766Z,-3.45
2018-11-28T05:50:37.061Z,-3.38
2018-11-28T05:55:39.101Z,-3.34
2018-11-28T06:00:41.592Z,-3.22
2018-11-28T06:05:43.646Z,-2.82
2018-11-28T06:10:45.886Z,-2.52
2018-11-28T06:15:47.937Z,-2.64
2018-11-28T06:20:50.247Z,-2.70
2018-11-28T06:25:52.427Z,-2.74
2018-11-28T06:30:54.516Z,-2.38
2018-11-28T06:35:56.616Z,-2.13
2018-11-28T06:40:58.869Z,-2.01
2018-11-28T06:46:00.963Z,-2.24
2018-11-28T06:51:03.067Z,-2.45
2018-11-28T06:56:12.394Z,-2.44
2018-11-28T07:01:14.673Z,-2.52
2018-11-28T07:06:16.705Z,-2.51
2018-11-28T07:11:19.017Z,-2.48
2018-11-28T07:16:21.093Z,-2.39
2018-11-28T07:21:23.130Z,-2.50
2018-11-28T07:26:25.166Z,-2.34
2018-11-28T07:31:27.623Z,-2.32
2018-11-28T07:36:29.666Z,-2.20
2018-11-28T07:41:31.721Z,-2.10
2018-11-28T07:46:33.761Z,-2.15
2018-11-28T07:51:36.082Z,-1.99
2018-11-28T07:56:38.118Z,-1.93
2018-11-28T08:01:40.239Z,-1.73
2018-11-28T08:06:42.289Z,-1.82
2018-11-28T08:11:44.330Z,-1.73
2018-11-28T08:16:46.408Z,-1.62
2018-11-28T08:21:48.440Z,-1.58
2018-11-28T08:26:50.834Z,-1.51
2018-11-28T08:31:52.929Z,-1.34
2018-11-28T08:36:54.981Z,-1.38
2018-11-28T08:41:57.056Z,-1.26
2018-11-28T08:46:59.094Z,-1.20
2018-11-28T08:52:01.112Z,-1.02
2018-11-28T08:57:03.193Z,-0.77
2018-11-28T09:02:06.801Z,-0.48
2018-11-28T09:07:08.840Z,-0.04
2018-11-28T09:12:10.902Z,0.46
2018-11-28T09:17:15.266Z,0.55
2018-11-28T09:22:15.150Z,0.96
2018-11-28T09:27:17.207Z,1.09
2018-11-28T09:32:20.252Z,1.11
2018-11-28T09:37:23.037Z,1.14
2018-11-28T09:42:25.317Z,1.53
2018-11-28T09:47:27.359Z,1.62
2018-11-28T09:52:29.409Z,1.94
2018-11-28T09:57:31.481Z,2.32
2018-11-28T10:02:33.530Z,2.43
2018-11-28T10:07:35.602Z,3.26
2018-11-28T10:12:37.677Z,3.89
2018-11-28T10:17:39.871Z,4.02
2018-11-28T10:22:42.089Z,4.15
2018-11-28T10:27:46.237Z,3.91
2018-11-28T10:32:48.887Z,4.22
2018-11-28T10:37:51.014Z,4.98
2018-11-28T10:42:56.184Z,4.97
2018-11-28T10:47:58.621Z,4.62
2018-11-28T10:53:00.675Z,5.06
2018-11-28T10:58:04.527Z,5.27
2018-11-28T11:03:12.629Z,5.05
2018-11-28T11:08:20.366Z,5.02
2018-11-28T11:13:28.199Z,4.33
2018-11-28T11:18:30.288Z,5.08
2018-11-28T11:23:32.347Z,5.38
2018-11-28T11:28:34.751Z,5.25
2018-11-28T11:33:36.882Z,5.59
2018-11-28T11:38:39.137Z,5.65
2018-11-28T11:43:41.258Z,5.64
2018-11-28T11:48:43.363Z,5.24
2018-11-28T11:53:45.442Z,5.83
2018-11-28T11:58:47.478Z,6.17
2018-11-28T12:03:49.559Z,5.87
2018-11-28T12:08:51.833Z,5.62
2018-11-28T12:13:53.902Z,6.42
2018-11-28T12:18:55.947Z,6.24
2018-11-28T12:23:58.006Z,6.60
2018-11-28T12:29:00.095Z,6.12
2018-11-28T12:34:02.182Z,6.41
2018-11-28T12:39:08.170Z,6.58
2018-11-28T12:44:10.250Z,6.40
2018-11-28T12:49:12.571Z,6.38
2018-11-28T12:54:14.626Z,6.42
2018-11-28T12:59:16.670Z,6.39
2018-11-28T13:04:18.773Z,6.40
2018-11-28T13:09:20.810Z,5.57
2018-11-28T13:14:22.835Z,5.73
2018-11-28T13:19:24.857Z,5.81
2018-11-28T13:24:26.906Z,5.36
2018-11-28T13:29:29.789Z,5.73
2018-11-28T13:34:31.857Z,5.39
2018-11-28T13:39:34.258Z,5.14
2018-11-28T13:44:36.301Z,5.14
2018-11-28T13:49:38.317Z,5.42
2018-11-28T13:55:36.898Z,4.58
2018-11-28T13:59:42.581Z,4.11
2018-11-28T14:04:44.472Z,3.11
2018-11-28T14:09:46.542Z,2.52
2018-11-28T14:14:48.564Z,2.22
2018-11-28T14:19:50.619Z,1.84
2018-11-28T14:24:53.013Z,1.54
2018-11-28T14:29:55.211Z,1.42
2018-11-28T14:34:57.261Z,1.19
2018-11-28T14:39:59.646Z,1.10
2018-11-28T14:45:01.719Z,1.01
2018-11-28T14:50:06.461Z,0.74
2018-11-28T14:55:10.941Z,0.72
2018-11-28T15:00:14.824Z,0.64
2018-11-28T15:05:22.487Z,0.35
2018-11-28T15:10:39.814Z,0.21
2018-11-28T15:15:41.880Z,0.13
2018-11-28T15:20:44.160Z,-0.08
2018-11-28T15:25:46.243Z,-0.30
2018-11-28T15:30:48.355Z,-0.32
2018-11-28T15:35:50.645Z,-0.69
2018-11-28T15:40:53.025Z,-0.74
2018-11-28T15:45:55.419Z,-0.65
2018-11-28T15:50:57.471Z,-0.89
2018-11-28T15:55:59.540Z,-1.24
2018-11-28T16:01:01.753Z,-1.32
2018-11-28T16:06:04.043Z,-1.40
2018-11-28T16:11:08.588Z,-1.36
2018-11-28T16:16:10.627Z,-1.28
2018-11-28T16:21:12.724Z,-1.31
2018-11-28T16:26:14.773Z,-1.59
2018-11-28T16:31:17.646Z,-1.65
2018-11-28T16:36:26.833Z,-1.62
2018-11-28T16:41:29.185Z,-1.40
2018-11-28T16:46:31.372Z,-1.31
2018-11-28T16:51:33.381Z,-1.45
2018-11-28T16:56:35.442Z,-1.44
2018-11-28T17:01:37.739Z,-1.33
2018-11-28T17:06:39.833Z,-1.44
2018-11-28T17:11:41.861Z,-1.45
2018-11-28T17:16:44.070Z,-1.39
2018-11-28T17:21:46.134Z,-1.59
2018-11-28T17:26:48.193Z,-1.73
2018-11-28T17:31:50.289Z,-1.94
2018-11-28T17:36:53.072Z,-1.79
2018-11-28T17:41:55.149Z,-1.72
2018-11-28T17:46:57.173Z,-1.72
2018-11-28T17:51:59.217Z,-1.64
2018-11-28T17:57:01.289Z,-1.68
2018-11-28T18:02:03.365Z,-1.71
2018-11-28T18:07:05.484Z,-1.62
2018-11-28T18:12:07.621Z,-1.57
2018-11-28T18:17:09.637Z,-1.68
2018-11-28T18:22:11.685Z,-1.66
2018-11-28T18:27:13.747Z,-1.71
2018-11-28T18:32:15.914Z,-1.74
2018-11-28T18:37:18.125Z,-1.80
2018-11-28T18:42:20.601Z,-1.84
2018-11-28T18:47:22.642Z,-1.92
2018-11-28T18:52:24.674Z,-2.04
2018-11-28T18:57:26.749Z,-1.91
2018-11-28T19:02:28.789Z,-1.90
2018-11-28T19:07:30.822Z,-1.78
2018-11-28T19:12:33.350Z,-1.76
2018-11-28T19:17:35.414Z,-1.80
2018-11-28T19:22:37.409Z,-1.82
2018-11-28T19:27:39.542Z,-1.80
2018-11-28T19:32:41.616Z,-2.02
2018-11-28T19:37:43.677Z,-2.08
2018-11-28T19:42:45.782Z,-2.15
2018-11-28T19:47:47.821Z,-2.13
2018-11-28T19:52:50.022Z,-2.17
2018-11-28T19:58:06.741Z,-2.23
2018-11-28T20:03:11.465Z,-2.13
2018-11-28T20:08:14.439Z,-2.20
2018-11-28T20:13:16.667Z,-2.22
2018-11-28T20:18:18.774Z,-2.20
2018-11-28T20:23:20.805Z,-2.26
2018-11-28T20:28:23.357Z,-2.31
2018-11-28T20:33:25.779Z,-2.41
2018-11-28T20:38:30.931Z,-2.66
2018-11-28T20:43:33.035Z,-2.76
2018-11-28T20:48:35.855Z,-2.85
2018-11-28T20:53:38.245Z,-2.96
2018-11-28T20:58:40.319Z,-2.95
2018-11-28T21:03:42.874Z,-2.71
2018-11-28T21:08:45.006Z,-2.52
2018-11-28T21:13:47.028Z,-2.52
2018-11-28T21:18:50.018Z,-2.48
2018-11-28T21:23:52.100Z,-2.34
2018-11-28T21:28:54.486Z,-2.31
2018-11-28T21:33:56.534Z,-2.14
2018-11-28T21:38:58.862Z,-2.10
2018-11-28T21:44:00.930Z,-2.02
2018-11-28T21:49:03.417Z,-1.97
2018-11-28T21:54:05.525Z,-2.07
2018-11-28T21:59:07.578Z,-1.96
2018-11-28T22:04:09.586Z,-2.12
2018-11-28T22:09:11.868Z,-2.29
2018-11-28T22:14:14.251Z,-2.35
2018-11-28T22:19:16.305Z,-2.33
2018-11-28T22:24:18.821Z,-2.40
2018-11-28T22:29:21.211Z,-2.38
2018-11-28T22:34:23.260Z,-2.31
2018-11-28T22:39:25.296Z,-2.34
2018-11-28T22:44:28.218Z,-2.23
2018-11-28T22:49:30.269Z,-2.09
2018-11-28T22:54:32.330Z,-2.05
2018-11-28T22:59:34.368Z,-2.07
2018-11-28T23:04:36.410Z,-2.05
2018-11-28T23:09:38.494Z,-2.15
2018-11-28T23:14:40.606Z,-2.14
2018-11-28T23:19:42.652Z,-2.08
2018-11-28T23:24:45.662Z,-1.96
2018-11-28T23:29:47.726Z,-1.75
2018-11-28T23:34:49.872Z,-1.70
2018-11-28T23:39:52.013Z,-1.66
2018-11-28T23:44:54.097Z,-1.64
2018-11-28T23:49:56.131Z,-1.69
2018-11-28T23:54:58.206Z,-1.79
